»·PEaware :: UAL284 KSFO-KSAN

UAL284 :: KSFO-KSAN

FLIGHT INFORMATION

Flight Status: Arrived
Operator:
United Airlines
More flights by this operator :: More flights under this callsign
Pilot: Jac C. (16067)
Aircraft: BOEING 737-800
(B738)
More flights by this aircraft type
Origin: KSFO San Francisco Intl
United States
Destination: KSAN San Diego Intl-Lindbergh
United States
More flights between these airports :: More routes between these airports
Route: +OFFSH1 MCKEY LAX HUBRD1
File this flight plan on PilotEdge
Remarks: PBN / A1B1C1D1S1S2 DOF / 180828 REG / N806SB EET / KZLA0028 OPR / UAL PER / C RMK / TCAS SIMBRIEF
Altitude:
(Current/Filed)
37,000ft
Speed:
(Current/Filed)
459kts
Departed: 27-Aug-18 04:52 PM
Arrived: 27-Aug-18 06:10 PM
Distance/Time
Traveled:
388nm/1:17
Distance/Time
To Go:
Arrived

Flight Plot

Page will automatically refresh every two minutes.


Map Options




Map Legend


Flown Route
Filed Route
Departure Airport
Arrival Airport
Navaid (VOR, NDB)
Fix

Horizontal Profiles

Position Reports

Time Latitude Longitude Heading Altitude Ground
Speed
27-Aug-18 15:57 37.618935 -122.385948 170 17ft 0kts
27-Aug-18 15:58 37.618935 -122.385948 170 17ft 0kts
27-Aug-18 15:59 37.618935 -122.385948 170 17ft 0kts
27-Aug-18 16:00 37.618935 -122.385948 170 17ft 0kts
27-Aug-18 16:01 37.618935 -122.385948 170 17ft 0kts
27-Aug-18 16:02 37.618935 -122.385948 170 17ft 0kts
27-Aug-18 16:03 37.618935 -122.385948 170 17ft 0kts
27-Aug-18 16:04 37.618935 -122.385948 170 17ft 0kts
27-Aug-18 16:05 37.618935 -122.385948 170 17ft 0kts
27-Aug-18 16:06 37.618935 -122.385948 170 17ft 0kts
27-Aug-18 16:07 37.618935 -122.385948 170 17ft 0kts
27-Aug-18 16:08 37.618935 -122.385948 170 17ft 0kts
27-Aug-18 16:09 37.618935 -122.385948 170 17ft 0kts
27-Aug-18 16:10 37.618935 -122.385948 170 17ft 0kts
27-Aug-18 16:11 37.618935 -122.385948 170 17ft 0kts
27-Aug-18 16:12 37.618935 -122.385948 170 17ft 0kts
27-Aug-18 16:13 37.618935 -122.385948 170 17ft 0kts
27-Aug-18 16:14 37.618935 -122.385948 170 17ft 0kts
27-Aug-18 16:15 37.618935 -122.385948 170 17ft 0kts
27-Aug-18 16:16 37.618935 -122.385948 170 17ft 0kts
27-Aug-18 16:17 37.618935 -122.385948 170 17ft 0kts
27-Aug-18 16:18 37.618935 -122.385948 170 17ft 0kts
27-Aug-18 16:19 37.618935 -122.385948 170 17ft 0kts
27-Aug-18 16:20 37.618935 -122.385948 170 17ft 0kts
27-Aug-18 16:21 37.618935 -122.385948 170 17ft 0kts
27-Aug-18 16:22 37.618935 -122.385948 170 17ft 0kts
27-Aug-18 16:23 37.618935 -122.385948 170 17ft 0kts
27-Aug-18 16:24 37.618935 -122.385948 170 17ft 0kts
27-Aug-18 16:25 37.618935 -122.385948 170 17ft 0kts
27-Aug-18 16:26 37.618935 -122.385948 170 17ft 0kts
27-Aug-18 16:27 37.618935 -122.385948 170 17ft 0kts
27-Aug-18 16:28 37.618935 -122.385948 170 17ft 0kts
27-Aug-18 16:29 37.618935 -122.385948 170 17ft 0kts
27-Aug-18 16:30 37.618935 -122.385948 170 17ft 0kts
27-Aug-18 16:31 37.618935 -122.385948 170 17ft 0kts
27-Aug-18 16:32 37.618935 -122.385948 170 17ft 0kts
27-Aug-18 16:33 37.618935 -122.385948 170 17ft 0kts
27-Aug-18 16:34 37.618935 -122.385948 170 17ft 0kts
27-Aug-18 16:35 37.618935 -122.385948 170 17ft 0kts
27-Aug-18 16:36 37.618935 -122.385948 170 17ft 0kts
27-Aug-18 16:37 37.618935 -122.385948 170 17ft 0kts
27-Aug-18 16:38 37.618935 -122.385948 170 17ft 0kts
27-Aug-18 16:39 37.619345 -122.385886 205 17ft 2kts
27-Aug-18 16:40 37.619604 -122.385832 104 17ft 2kts
27-Aug-18 16:41 37.619880 -122.385432 29 17ft 0kts
27-Aug-18 16:42 37.619880 -122.385432 29 17ft 0kts
27-Aug-18 16:43 37.619881 -122.385432 29 17ft 0kts
27-Aug-18 16:44 37.620080 -122.385289 29 17ft 5kts
27-Aug-18 16:45 37.620180 -122.383269 118 16ft 12kts
27-Aug-18 16:46 37.618199 -122.378352 111 16ft 15kts
27-Aug-18 16:47 37.617981 -122.377650 111 17ft 0kts
27-Aug-18 16:48 37.617215 -122.375194 113 17ft 0kts
27-Aug-18 16:49 37.616259 -122.372880 118 17ft 20kts
27-Aug-18 16:50 37.613254 -122.366836 118 17ft 19kts
27-Aug-18 16:51 37.610846 -122.361108 117 17ft 17kts
27-Aug-18 16:52 37.610963 -122.359052 29 16ft 0kts
27-Aug-18 16:53 37.614013 -122.363845 298 17ft 89kts
27-Aug-18 16:54 37.635229 -122.411339 304 1586ft 195kts
27-Aug-18 16:55 37.664985 -122.484335 294 3425ft 261kts
27-Aug-18 16:56 37.719955 -122.541780 309 6479ft 274kts
27-Aug-18 16:57 37.700852 -122.622055 209 9312ft 285kts
27-Aug-18 16:58 37.626885 -122.669830 206 11398ft 319kts
27-Aug-18 16:59 37.544927 -122.717221 188 14003ft 333kts
27-Aug-18 17:00 37.452224 -122.701751 167 16582ft 346kts
27-Aug-18 17:01 37.357165 -122.676322 167 18942ft 358kts
27-Aug-18 17:02 37.257871 -122.649992 167 21126ft 370kts
27-Aug-18 17:03 37.155894 -122.623100 167 23105ft 382kts
27-Aug-18 17:04 37.050749 -122.595492 167 24911ft 393kts
27-Aug-18 17:05 36.942586 -122.567198 167 26565ft 403kts
27-Aug-18 17:06 36.832692 -122.538559 167 28068ft 413kts
27-Aug-18 17:07 36.719788 -122.509234 167 29515ft 420kts
27-Aug-18 17:08 36.653871 -122.492157 167 30498ft 419kts
27-Aug-18 17:09 36.551754 -122.465765 167 31961ft 416kts
27-Aug-18 17:10 36.440215 -122.431239 153 33429ft 413kts
27-Aug-18 17:11 36.356910 -122.338337 130 34739ft 411kts
27-Aug-18 17:12 36.287082 -122.235944 130 35905ft 409kts
27-Aug-18 17:13 36.215632 -122.131708 130 36943ft 408kts
27-Aug-18 17:14 36.139942 -122.021772 130 37006ft 433kts
27-Aug-18 17:15 36.059853 -121.905900 130 37000ft 450kts
27-Aug-18 17:16 35.978948 -121.789284 130 36999ft 448kts
27-Aug-18 17:17 35.897936 -121.672934 130 37000ft 449kts
27-Aug-18 17:18 35.817003 -121.557109 130 37000ft 448kts
27-Aug-18 17:19 35.735592 -121.441006 130 37000ft 449kts
27-Aug-18 17:20 35.655079 -121.326575 131 37000ft 449kts
27-Aug-18 17:21 35.575617 -121.214023 131 37000ft 448kts
27-Aug-18 17:22 35.493813 -121.098547 131 37000ft 448kts
27-Aug-18 17:23 35.420582 -120.975471 124 36999ft 449kts
27-Aug-18 17:24 35.348363 -120.851284 125 37000ft 448kts
27-Aug-18 17:25 35.277226 -120.731460 125 37000ft 449kts
27-Aug-18 17:26 35.204143 -120.608232 125 37000ft 448kts
27-Aug-18 17:27 35.131269 -120.485134 125 37000ft 448kts
27-Aug-18 17:28 35.058413 -120.361852 125 37000ft 448kts
27-Aug-18 17:29 34.990403 -120.246574 125 37000ft 448kts
27-Aug-18 17:30 34.917989 -120.123622 125 37000ft 448kts
27-Aug-18 17:31 34.847823 -120.004285 125 37000ft 448kts
27-Aug-18 17:32 34.775352 -119.880817 125 37000ft 448kts
27-Aug-18 17:33 34.703036 -119.757400 125 37000ft 448kts
27-Aug-18 17:34 34.631154 -119.634513 125 37000ft 448kts
27-Aug-18 17:35 34.559051 -119.511039 125 37000ft 448kts
27-Aug-18 17:36 34.487266 -119.387900 124 37000ft 448kts
27-Aug-18 17:37 34.424004 -119.279211 125 37000ft 448kts
27-Aug-18 17:38 34.356542 -119.163132 125 37000ft 448kts
27-Aug-18 17:39 34.285366 -119.040468 125 37000ft 448kts
27-Aug-18 17:40 34.214473 -118.918096 124 37000ft 448kts
27-Aug-18 17:41 34.143695 -118.795734 124 37000ft 448kts
27-Aug-18 17:42 34.073180 -118.673644 124 36997ft 446kts
27-Aug-18 17:43 34.002913 -118.551811 124 36999ft 448kts
27-Aug-18 17:44 33.933403 -118.431138 124 37000ft 439kts
27-Aug-18 17:45 33.854702 -118.328563 134 36994ft 439kts
27-Aug-18 17:46 33.774320 -118.227723 134 34200ft 428kts
27-Aug-18 17:47 33.690532 -118.123402 133 30475ft 442kts
27-Aug-18 17:48 33.606557 -118.015720 133 26833ft 447kts
27-Aug-18 17:49 33.522865 -117.908445 133 23461ft 426kts
27-Aug-18 17:50 33.443968 -117.807536 133 19673ft 408kts
27-Aug-18 17:51 33.369407 -117.713480 133 17782ft 388kts
27-Aug-18 17:52 33.295712 -117.620831 133 17234ft 386kts
27-Aug-18 17:53 33.222075 -117.528456 133 16358ft 380kts
27-Aug-18 17:54 33.149859 -117.438089 133 15226ft 374kts
27-Aug-18 17:55 33.060283 -117.377864 155 15018ft 373kts
27-Aug-18 17:56 32.967698 -117.327023 155 15018ft 373kts
27-Aug-18 17:57 32.876910 -117.275396 146 15011ft 373kts
27-Aug-18 17:58 32.817196 -117.176772 117 13421ft 364kts
27-Aug-18 17:59 32.782958 -117.067393 101 10128ft 349kts
27-Aug-18 18:00 32.765647 -116.963706 101 7922ft 293kts
27-Aug-18 18:01 32.750602 -116.873155 101 6143ft 263kts
27-Aug-18 18:02 32.737767 -116.796062 103 5515ft 237kts
27-Aug-18 18:03 32.691077 -116.775650 227 5066ft 214kts
27-Aug-18 18:04 32.665077 -116.837440 260 5016ft 215kts
27-Aug-18 18:05 32.664815 -116.905722 284 5013ft 209kts
27-Aug-18 18:06 32.679654 -116.968298 286 4884ft 197kts
27-Aug-18 18:07 32.695230 -117.032180 286 3250ft 207kts
27-Aug-18 18:08 32.710498 -117.094679 286 1935ft 174kts
27-Aug-18 18:09 32.722371 -117.143565 286 761ft 138kts
27-Aug-18 18:10 32.732835 -117.186858 286 23ft 131kts
27-Aug-18 18:11 32.736102 -117.200543 271 23ft 13kts
27-Aug-18 18:12 32.735146 -117.202279 186 22ft 0kts
27-Aug-18 18:13 32.733359 -117.202289 101 24ft 1kts
27-Aug-18 18:14 32.733359 -117.201702 85 25ft 0kts

Navigation Log

Ident Type
Flight plan parsing failed, navigation log unavailable